createdAt,value
2023-02-22T00:02:29.543Z,8.50
2023-02-22T00:05:03.315Z,7.20
2023-02-22T00:07:36.547Z,9.30
2023-02-22T00:10:14.456Z,12.40
2023-02-22T00:12:49.087Z,13.20
2023-02-22T00:15:28.190Z,20.10
2023-02-22T00:18:01.835Z,27.60
2023-02-22T00:20:34.801Z,17.80
2023-02-22T00:23:16.534Z,19.00
2023-02-22T00:25:51.329Z,12.30
2023-02-22T00:28:24.927Z,9.90
2023-02-22T00:30:58.315Z,10.00
2023-02-22T00:33:31.968Z,9.10
2023-02-22T00:36:05.423Z,10.00
2023-02-22T00:38:39.061Z,9.60
2023-02-22T00:41:13.665Z,8.70
2023-02-22T00:43:47.072Z,10.30
2023-02-22T00:46:19.949Z,12.40
2023-02-22T00:48:53.682Z,10.80
2023-02-22T00:51:29.385Z,10.00
2023-02-22T00:54:02.851Z,12.50
2023-02-22T00:56:36.817Z,11.70
2023-02-22T00:59:10.127Z,12.00
2023-02-22T01:01:43.676Z,12.60
2023-02-22T01:04:16.963Z,8.70
2023-02-22T01:06:49.959Z,10.40
2023-02-22T01:09:23.461Z,10.90
2023-02-22T01:11:57.534Z,13.80
2023-02-22T01:14:31.044Z,9.90
2023-02-22T01:17:04.071Z,13.20
2023-02-22T01:19:37.160Z,12.00
2023-02-22T01:22:10.290Z,11.70
2023-02-22T01:24:43.162Z,8.80
2023-02-22T01:27:16.483Z,10.20
2023-02-22T01:29:51.862Z,10.40
2023-02-22T01:32:25.161Z,10.20
2023-02-22T01:34:58.302Z,11.70
2023-02-22T01:37:31.363Z,9.50
2023-02-22T01:40:07.952Z,13.60
2023-02-22T01:42:41.041Z,14.70
2023-02-22T01:45:34.939Z,15.90
2023-02-22T01:48:13.970Z,14.70
2023-02-22T01:51:11.629Z,16.00
2023-02-22T01:53:54.738Z,17.90
2023-02-22T01:56:32.293Z,16.10
2023-02-22T01:59:10.708Z,18.10
2023-02-22T02:01:46.779Z,13.10
2023-02-22T02:04:28.222Z,13.60
2023-02-22T02:07:06.739Z,15.20
2023-02-22T02:09:47.866Z,12.80
2023-02-22T02:12:21.886Z,11.50
2023-02-22T02:15:17.261Z,15.20
2023-02-22T02:17:52.750Z,9.90
2023-02-22T02:20:48.952Z,8.70
2023-02-22T02:23:33.181Z,10.40
2023-02-22T02:26:28.440Z,9.60
2023-02-22T02:29:24.427Z,8.20
2023-02-22T02:32:20.760Z,8.20
2023-02-22T02:35:09.754Z,11.80
2023-02-22T02:37:57.686Z,8.60
2023-02-22T02:41:08.376Z,9.80
2023-02-22T02:44:01.841Z,8.30
2023-02-22T02:47:01.864Z,10.60
2023-02-22T02:49:46.573Z,9.60
2023-02-22T02:52:23.983Z,9.30
2023-02-22T02:54:58.817Z,11.80
2023-02-22T02:57:32.641Z,11.40
2023-02-22T03:00:24.802Z,8.90
2023-02-22T03:03:25.960Z,11.00
2023-02-22T03:06:28.971Z,10.20
2023-02-22T03:09:42.646Z,11.30
2023-02-22T03:12:41.352Z,18.60
2023-02-22T03:15:35.851Z,12.10
2023-02-22T03:18:29.572Z,10.70
2023-02-22T03:21:04.615Z,9.30
2023-02-22T03:24:01.061Z,9.90
2023-02-22T03:26:48.637Z,10.00
2023-02-22T03:29:23.958Z,13.30
2023-02-22T03:32:02.983Z,9.50
2023-02-22T03:34:53.537Z,16.20
2023-02-22T03:37:41.806Z,15.50
2023-02-22T03:40:27.975Z,10.60
2023-02-22T03:43:09.774Z,12.50
2023-02-22T03:45:49.443Z,10.70
2023-02-22T03:48:38.616Z,10.90
2023-02-22T03:51:16.958Z,10.70
2023-02-22T03:53:54.379Z,10.90
2023-02-22T03:56:47.956Z,10.40
2023-02-22T03:59:28.417Z,10.60
2023-02-22T04:02:02.667Z,13.30
2023-02-22T04:04:36.668Z,8.10
2023-02-22T04:07:10.331Z,10.20
2023-02-22T04:09:44.612Z,11.70
2023-02-22T04:12:18.500Z,11.80
2023-02-22T04:15:03.923Z,9.60
2023-02-22T04:17:36.884Z,10.40
2023-02-22T04:20:10.666Z,12.40
2023-02-22T04:22:51.867Z,8.30
2023-02-22T04:25:26.017Z,17.70
2023-02-22T04:27:59.339Z,15.00
2023-02-22T04:30:49.924Z,11.80
2023-02-22T04:33:24.666Z,11.70
2023-02-22T04:35:58.461Z,8.50
2023-02-22T04:38:32.077Z,9.30
2023-02-22T04:41:05.865Z,11.30
2023-02-22T04:43:38.872Z,10.80
2023-02-22T04:46:22.720Z,12.80
2023-02-22T04:48:56.509Z,11.90
2023-02-22T04:51:32.626Z,9.20
2023-02-22T04:54:14.322Z,10.50
2023-02-22T04:56:51.588Z,12.00
2023-02-22T04:59:25.124Z,13.00
2023-02-22T05:02:07.622Z,10.00
2023-02-22T05:04:41.778Z,13.40
2023-02-22T05:07:15.184Z,12.10
2023-02-22T05:09:48.384Z,10.80
2023-02-22T05:12:21.931Z,12.60
2023-02-22T05:14:55.029Z,12.40
2023-02-22T05:17:29.711Z,11.70
2023-02-22T05:20:03.556Z,13.30
2023-02-22T05:22:36.802Z,13.60
2023-02-22T05:25:12.265Z,12.20
2023-02-22T05:27:46.038Z,14.40
2023-02-22T05:30:19.948Z,13.60
2023-02-22T05:32:53.200Z,18.20
2023-02-22T05:35:27.147Z,19.80
2023-02-22T05:38:03.869Z,21.50
2023-02-22T05:40:37.228Z,15.10
2023-02-22T05:43:10.995Z,12.00
2023-02-22T05:45:45.030Z,12.90
2023-02-22T05:48:18.683Z,14.60
2023-02-22T05:50:53.105Z,16.10
2023-02-22T05:53:26.801Z,18.90
2023-02-22T05:55:59.820Z,19.80
2023-02-22T05:58:33.504Z,19.70
2023-02-22T06:01:07.137Z,20.20
2023-02-22T06:03:40.392Z,21.50
2023-02-22T06:06:13.426Z,27.70
2023-02-22T06:08:47.029Z,26.90
2023-02-22T06:11:20.372Z,23.50
2023-02-22T06:13:55.237Z,21.80
2023-02-22T06:16:28.559Z,28.40
2023-02-22T06:19:02.027Z,23.10
2023-02-22T06:21:35.145Z,17.30
2023-02-22T06:24:09.018Z,14.00
2023-02-22T06:26:42.577Z,13.90
2023-02-22T06:29:15.923Z,13.50
2023-02-22T06:31:49.114Z,15.10
2023-02-22T06:34:25.858Z,12.00
2023-02-22T06:37:00.062Z,15.40
2023-02-22T06:39:33.811Z,16.80
2023-02-22T06:42:07.272Z,14.70
2023-02-22T06:44:40.480Z,19.40
2023-02-22T06:47:13.683Z,23.80
2023-02-22T06:49:46.883Z,16.10
2023-02-22T06:52:19.756Z,23.10
2023-02-22T06:54:53.956Z,23.70
2023-02-22T06:57:27.196Z,17.40
2023-02-22T07:00:00.583Z,15.40
2023-02-22T07:02:34.039Z,19.10
2023-02-22T07:05:08.031Z,19.60
2023-02-22T07:07:41.091Z,20.20
2023-02-22T07:10:28.307Z,20.60
2023-02-22T07:13:04.231Z,15.80
2023-02-22T07:15:38.962Z,13.60
2023-02-22T07:18:12.518Z,15.50
2023-02-22T07:20:46.069Z,15.60
2023-02-22T07:23:20.602Z,17.40
2023-02-22T07:25:54.374Z,19.30
2023-02-22T07:28:28.168Z,17.00
2023-02-22T07:31:02.226Z,16.50
2023-02-22T07:33:36.401Z,11.80
2023-02-22T07:36:10.506Z,10.30
2023-02-22T07:38:44.028Z,11.50
2023-02-22T07:41:17.879Z,10.00
2023-02-22T07:43:51.667Z,15.60
2023-02-22T07:46:26.510Z,13.10
2023-02-22T07:48:59.702Z,8.50
2023-02-22T07:51:33.606Z,10.20
2023-02-22T07:54:08.620Z,10.90
2023-02-22T07:56:50.832Z,11.30
2023-02-22T07:59:24.424Z,12.90
2023-02-22T08:01:58.362Z,10.00
2023-02-22T08:04:32.250Z,10.10
2023-02-22T08:07:06.130Z,12.80
2023-02-22T08:09:40.733Z,10.90
2023-02-22T08:12:15.322Z,17.30
2023-02-22T08:14:49.468Z,11.60
2023-02-22T08:17:23.276Z,9.00
2023-02-22T08:19:57.155Z,12.50
2023-02-22T08:22:30.721Z,10.80
2023-02-22T08:25:04.229Z,11.00
2023-02-22T08:27:37.791Z,9.30
2023-02-22T08:30:13.475Z,13.50
2023-02-22T08:32:48.067Z,8.20
2023-02-22T08:35:23.703Z,10.90
2023-02-22T08:38:00.913Z,10.30
2023-02-22T08:40:41.008Z,12.40
2023-02-22T08:43:14.868Z,10.30
2023-02-22T08:45:49.541Z,13.40
2023-02-22T08:48:23.049Z,6.10
2023-02-22T08:50:56.893Z,9.70
2023-02-22T08:53:33.919Z,9.20
2023-02-22T08:56:07.459Z,12.30
2023-02-22T08:58:40.941Z,11.50
2023-02-22T09:01:19.313Z,13.30
2023-02-22T09:03:56.979Z,15.40
2023-02-22T09:06:31.981Z,14.50
2023-02-22T09:09:05.413Z,8.60
2023-02-22T09:11:38.665Z,9.80
2023-02-22T09:14:12.278Z,11.50
2023-02-22T09:16:47.628Z,12.80
2023-02-22T09:19:21.297Z,11.30
2023-02-22T09:21:59.430Z,13.80
2023-02-22T09:24:33.229Z,11.50
2023-02-22T09:27:07.875Z,15.70
2023-02-22T09:29:41.684Z,11.80
2023-02-22T09:32:18.773Z,12.90
2023-02-22T09:34:52.881Z,8.30
2023-02-22T09:37:26.998Z,14.80
2023-02-22T09:40:00.951Z,15.10
2023-02-22T09:42:51.177Z,15.60
2023-02-22T09:45:30.796Z,11.10
2023-02-22T09:48:21.242Z,11.10
2023-02-22T09:51:02.747Z,7.40
2023-02-22T09:53:45.712Z,6.90
2023-02-22T09:59:02.466Z,10.80
2023-02-22T10:01:41.225Z,13.60
2023-02-22T10:04:34.746Z,12.10
2023-02-22T10:07:26.864Z,14.40
2023-02-22T10:10:08.713Z,12.70
2023-02-22T10:13:04.680Z,14.90
2023-02-22T10:15:49.290Z,14.30
2023-02-22T10:18:31.353Z,15.60
2023-02-22T10:21:17.091Z,14.90
2023-02-22T10:23:55.127Z,9.90
2023-02-22T10:26:37.415Z,12.20
2023-02-22T10:29:22.953Z,14.00
2023-02-22T10:32:08.643Z,15.60
2023-02-22T10:34:54.348Z,11.60
2023-02-22T10:37:32.716Z,12.70
2023-02-22T10:40:23.662Z,9.60
2023-02-22T10:42:59.369Z,9.40
2023-02-22T10:45:34.964Z,13.90
2023-02-22T10:48:18.979Z,10.20
2023-02-22T10:51:03.648Z,13.00
2023-02-22T10:53:38.940Z,13.00
2023-02-22T10:56:23.752Z,12.30
2023-02-22T10:59:08.037Z,11.00
2023-02-22T11:01:43.000Z,15.30
2023-02-22T11:04:24.895Z,13.70
2023-02-22T11:07:06.038Z,12.30
2023-02-22T11:09:51.350Z,11.90
2023-02-22T11:12:48.400Z,10.30
2023-02-22T11:15:26.869Z,12.00
2023-02-22T11:18:02.591Z,10.20
2023-02-22T11:20:40.761Z,14.40
2023-02-22T11:23:15.102Z,9.50
2023-02-22T11:25:48.891Z,10.40
2023-02-22T11:28:33.721Z,11.20
2023-02-22T11:31:24.991Z,15.30
2023-02-22T11:34:06.017Z,9.60
2023-02-22T11:36:44.596Z,7.90
2023-02-22T11:39:34.891Z,11.20
2023-02-22T11:42:28.223Z,12.40
2023-02-22T11:45:22.882Z,12.20
2023-02-22T11:48:03.843Z,13.70
2023-02-22T11:50:56.684Z,14.20
2023-02-22T11:54:07.099Z,10.60
2023-02-22T11:56:47.989Z,12.10
2023-02-22T11:59:56.383Z,9.30
2023-02-22T12:03:03.808Z,10.90
2023-02-22T12:06:03.591Z,14.00
2023-02-22T12:08:56.032Z,11.90
2023-02-22T12:11:38.193Z,12.20
2023-02-22T12:14:28.456Z,9.90
2023-02-22T12:17:22.333Z,8.30
2023-02-22T12:20:22.773Z,8.10
2023-02-22T12:23:19.986Z,7.90
2023-02-22T12:26:05.051Z,14.00
2023-02-22T12:28:45.663Z,10.30
2023-02-22T12:31:30.584Z,12.20
2023-02-22T12:34:27.594Z,12.50
2023-02-22T12:37:24.393Z,11.00
2023-02-22T12:40:14.093Z,9.60
2023-02-22T12:43:14.331Z,8.80
2023-02-22T12:46:00.013Z,11.10
2023-02-22T12:49:06.203Z,11.40
2023-02-22T12:51:47.889Z,6.80
2023-02-22T12:54:48.062Z,9.00
2023-02-22T12:57:43.308Z,12.50
2023-02-22T13:00:46.541Z,9.90
2023-02-22T13:03:46.435Z,8.70
2023-02-22T13:06:38.509Z,12.00
2023-02-22T13:09:41.565Z,11.20
2023-02-22T13:12:31.653Z,14.00
2023-02-22T13:15:10.000Z,8.70
2023-02-22T13:18:01.829Z,11.80
2023-02-22T13:20:47.736Z,9.80
2023-02-22T13:23:45.525Z,7.60
2023-02-22T13:26:39.002Z,10.20
2023-02-22T13:29:29.336Z,10.50
2023-02-22T13:32:08.316Z,10.90
2023-02-22T13:35:09.138Z,9.30
2023-02-22T13:38:07.188Z,10.10
2023-02-22T13:41:18.444Z,5.90
2023-02-22T13:44:27.478Z,11.50
2023-02-22T13:47:18.224Z,11.30
2023-02-22T13:50:27.835Z,9.00
2023-02-22T13:53:02.408Z,11.60
2023-02-22T13:55:36.654Z,9.90
2023-02-22T13:58:12.882Z,10.10
2023-02-22T14:01:00.014Z,10.70
2023-02-22T14:03:41.541Z,8.20
2023-02-22T14:06:42.136Z,9.00
2023-02-22T14:09:56.624Z,7.70
2023-02-22T14:12:50.975Z,9.30
2023-02-22T14:15:30.082Z,6.00
2023-02-22T14:18:18.467Z,8.80
2023-02-22T14:21:16.526Z,9.10
2023-02-22T14:23:58.285Z,9.40
2023-02-22T14:26:40.185Z,9.70
2023-02-22T14:29:23.396Z,9.30
2023-02-22T14:32:03.660Z,8.90
2023-02-22T14:34:47.085Z,8.10
2023-02-22T14:37:27.633Z,9.60
2023-02-22T14:40:31.891Z,9.80
2023-02-22T14:43:20.411Z,9.50
2023-02-22T14:45:57.098Z,10.10
2023-02-22T14:48:43.531Z,10.20
2023-02-22T14:51:26.957Z,12.50
2023-02-22T14:54:17.650Z,12.50
2023-02-22T14:57:13.161Z,17.20
2023-02-22T15:00:38.469Z,15.80
2023-02-22T15:03:41.991Z,13.50
2023-02-22T15:06:29.378Z,13.40
2023-02-22T15:09:30.123Z,11.90
2023-02-22T15:12:09.009Z,12.80
2023-02-22T15:14:48.335Z,11.20
2023-02-22T15:17:27.641Z,9.60
2023-02-22T15:20:01.342Z,9.70
2023-02-22T15:22:38.947Z,10.60
2023-02-22T15:25:13.280Z,8.60
2023-02-22T15:27:48.998Z,10.60
2023-02-22T15:30:27.305Z,9.60
2023-02-22T15:33:13.483Z,9.60
2023-02-22T15:35:47.240Z,9.40
2023-02-22T15:38:23.713Z,10.60
2023-02-22T15:41:14.510Z,9.40
2023-02-22T15:44:03.428Z,9.90
2023-02-22T15:46:45.484Z,10.70
2023-02-22T15:49:19.967Z,11.10
2023-02-22T15:52:10.283Z,12.00
2023-02-22T15:54:49.815Z,12.20
2023-02-22T15:57:27.891Z,11.90
2023-02-22T16:00:01.860Z,22.50
2023-02-22T16:02:40.524Z,17.80
2023-02-22T16:05:19.316Z,16.20
2023-02-22T16:07:54.930Z,16.60
2023-02-22T16:10:31.462Z,15.90
2023-02-22T16:13:31.633Z,14.90
2023-02-22T16:16:24.960Z,17.30
2023-02-22T16:19:33.496Z,20.00
2023-02-22T16:22:16.247Z,16.00
2023-02-22T16:24:52.887Z,14.50
2023-02-22T16:27:28.455Z,19.30
2023-02-22T16:30:23.256Z,18.50
2023-02-22T16:33:06.132Z,19.70
2023-02-22T16:35:40.463Z,17.20
2023-02-22T16:38:20.329Z,17.30
2023-02-22T16:40:56.645Z,17.30
2023-02-22T16:43:37.424Z,17.80
2023-02-22T16:46:10.435Z,19.50
2023-02-22T16:48:47.209Z,17.30
2023-02-22T16:51:26.256Z,17.80
2023-02-22T16:54:00.609Z,17.00
2023-02-22T16:56:35.895Z,20.40
2023-02-22T16:59:17.786Z,21.90
2023-02-22T17:01:51.705Z,19.60
2023-02-22T17:04:29.990Z,19.70
2023-02-22T17:07:05.263Z,23.20
2023-02-22T17:09:40.421Z,17.30
2023-02-22T17:12:13.787Z,19.30
2023-02-22T17:14:49.570Z,22.30
2023-02-22T17:17:23.389Z,21.90
2023-02-22T17:19:56.819Z,21.90
2023-02-22T17:22:30.528Z,24.40
2023-02-22T17:25:06.480Z,26.10
2023-02-22T17:27:41.691Z,22.10
2023-02-22T17:30:17.851Z,25.60
2023-02-22T17:32:52.442Z,19.90
2023-02-22T17:35:27.665Z,20.10
2023-02-22T17:38:01.853Z,24.10
2023-02-22T17:40:37.413Z,24.80
2023-02-22T17:43:11.253Z,23.30
2023-02-22T17:45:46.746Z,25.10
2023-02-22T17:48:22.300Z,24.90
2023-02-22T17:50:57.453Z,25.70
2023-02-22T17:53:31.545Z,28.00
2023-02-22T17:56:19.601Z,30.40
2023-02-22T17:58:55.326Z,31.90
2023-02-22T18:01:36.140Z,30.70
2023-02-22T18:04:08.877Z,33.90
2023-02-22T18:06:42.943Z,38.90
2023-02-22T18:09:18.697Z,36.80
2023-02-22T18:11:53.764Z,30.50
2023-02-22T18:14:28.122Z,36.20
2023-02-22T18:17:02.853Z,44.40
2023-02-22T18:19:36.312Z,44.60
2023-02-22T18:22:11.211Z,39.30
2023-02-22T18:24:45.375Z,44.10
2023-02-22T18:27:19.554Z,27.20
2023-02-22T18:29:53.012Z,26.30
2023-02-22T18:32:31.754Z,26.00
2023-02-22T18:35:06.917Z,32.80
2023-02-22T18:37:40.472Z,39.40
2023-02-22T18:40:13.657Z,42.10
2023-02-22T18:42:47.297Z,57.20
2023-02-22T18:45:21.739Z,52.60
2023-02-22T18:47:55.080Z,54.00
2023-02-22T18:50:29.332Z,49.70
2023-02-22T18:53:02.519Z,50.80
2023-02-22T18:55:41.310Z,45.20
2023-02-22T18:58:14.390Z,46.20
2023-02-22T19:00:50.278Z,42.60
2023-02-22T19:03:24.737Z,43.50
2023-02-22T19:06:03.998Z,49.00
2023-02-22T19:08:41.915Z,46.20
2023-02-22T19:11:22.359Z,47.80
2023-02-22T19:14:00.630Z,51.40
2023-02-22T19:16:37.384Z,48.30
2023-02-22T19:19:11.962Z,52.40
2023-02-22T19:21:46.380Z,47.60
2023-02-22T19:24:21.239Z,55.80
2023-02-22T19:26:58.305Z,55.40
2023-02-22T19:29:31.864Z,50.90
2023-02-22T19:32:04.915Z,55.20
2023-02-22T19:34:38.906Z,60.40
2023-02-22T19:37:13.496Z,59.20
2023-02-22T19:39:47.424Z,59.90
2023-02-22T19:42:21.938Z,66.50
2023-02-22T19:44:55.336Z,64.80
2023-02-22T19:47:28.378Z,55.10
2023-02-22T19:50:02.189Z,57.60
2023-02-22T19:52:36.422Z,57.20
2023-02-22T19:55:13.614Z,52.20
2023-02-22T19:57:50.412Z,48.40
2023-02-22T20:00:28.519Z,45.00
2023-02-22T20:03:06.463Z,61.70
2023-02-22T20:05:43.469Z,57.00
2023-02-22T20:08:27.341Z,51.00
2023-02-22T20:11:04.984Z,47.10
2023-02-22T20:13:41.264Z,45.00
2023-02-22T20:16:19.643Z,41.90
2023-02-22T20:18:55.081Z,37.50
2023-02-22T20:21:33.746Z,37.70
2023-02-22T20:24:12.256Z,37.10
2023-02-22T20:26:47.849Z,32.90
2023-02-22T20:29:28.604Z,40.10
2023-02-22T20:32:06.720Z,37.00
2023-02-22T20:34:40.831Z,38.70
2023-02-22T20:37:15.620Z,38.60
2023-02-22T20:39:49.889Z,35.00
2023-02-22T20:42:24.411Z,37.60
2023-02-22T20:45:02.690Z,36.30
2023-02-22T20:47:37.192Z,34.40
2023-02-22T20:50:11.604Z,39.50
2023-02-22T20:52:45.491Z,33.40
2023-02-22T20:55:19.224Z,34.70
2023-02-22T20:57:53.433Z,38.10
2023-02-22T21:00:27.421Z,31.00
2023-02-22T21:03:01.181Z,45.50
2023-02-22T21:05:35.494Z,44.40
2023-02-22T21:08:09.784Z,52.10
2023-02-22T21:10:50.409Z,43.40
2023-02-22T21:13:24.547Z,50.30
2023-02-22T21:15:58.338Z,53.40
2023-02-22T21:18:31.602Z,52.80
2023-02-22T21:21:10.860Z,48.00
2023-02-22T21:23:45.558Z,49.70
2023-02-22T21:26:21.407Z,36.90
2023-02-22T21:29:01.212Z,34.10
2023-02-22T21:31:36.147Z,34.00
2023-02-22T21:34:14.162Z,42.00
2023-02-22T21:36:51.198Z,39.90
2023-02-22T21:39:29.035Z,40.40
2023-02-22T21:42:03.227Z,38.20
2023-02-22T21:44:36.928Z,44.40
2023-02-22T21:47:10.083Z,37.10
2023-02-22T21:49:43.242Z,38.50
2023-02-22T21:52:16.653Z,42.20
2023-02-22T21:54:49.815Z,26.00
2023-02-22T21:57:22.710Z,31.10
2023-02-22T21:59:55.684Z,29.20
2023-02-22T22:02:29.683Z,26.30
2023-02-22T22:05:02.853Z,24.80
2023-02-22T22:07:35.730Z,17.40
2023-02-22T22:10:09.604Z,16.40
2023-02-22T22:12:42.867Z,16.00
2023-02-22T22:15:18.854Z,17.90
2023-02-22T22:17:52.812Z,14.00
2023-02-22T22:20:25.809Z,16.50
2023-02-22T22:22:58.905Z,14.10
2023-02-22T22:25:32.766Z,14.10
2023-02-22T22:28:08.185Z,13.50
2023-02-22T22:30:41.683Z,12.70
2023-02-22T22:33:15.367Z,14.60
2023-02-22T22:35:48.436Z,11.80
2023-02-22T22:38:21.641Z,13.40
2023-02-22T22:41:01.542Z,14.00
2023-02-22T22:43:35.782Z,13.00
2023-02-22T22:46:13.227Z,14.20
2023-02-22T22:48:47.749Z,12.60
2023-02-22T22:51:22.868Z,12.00
2023-02-22T22:53:56.547Z,13.80
2023-02-22T22:56:30.820Z,12.70
2023-02-22T22:59:08.342Z,13.30
2023-02-22T23:01:47.524Z,12.50
2023-02-22T23:04:21.914Z,12.60
2023-02-22T23:06:57.249Z,15.00
2023-02-22T23:09:35.544Z,11.70
2023-02-22T23:12:19.905Z,12.00
2023-02-22T23:14:52.985Z,11.90
2023-02-22T23:17:31.754Z,11.00
2023-02-22T23:20:12.945Z,11.30
2023-02-22T23:22:47.876Z,11.70
2023-02-22T23:25:20.653Z,10.40
2023-02-22T23:27:56.815Z,12.50
2023-02-22T23:30:31.121Z,12.10
2023-02-22T23:33:04.396Z,10.60
2023-02-22T23:35:37.329Z,12.10
2023-02-22T23:38:11.241Z,12.20
2023-02-22T23:40:45.338Z,12.30
2023-02-22T23:43:20.746Z,13.20
2023-02-22T23:45:58.057Z,12.20
2023-02-22T23:48:31.228Z,11.90
2023-02-22T23:51:09.588Z,14.10
2023-02-22T23:53:46.936Z,16.40
2023-02-22T23:56:22.632Z,20.40
2023-02-22T23:58:57.968Z,23.70
